createdAt,value
2018-09-22T00:00:53.471Z,68.80
2018-09-22T00:03:24.165Z,68.80
2018-09-22T00:05:54.859Z,69.00
2018-09-22T00:08:25.920Z,69.10
2018-09-22T00:10:56.656Z,69.10
2018-09-22T00:13:27.326Z,69.40
2018-09-22T00:15:58.023Z,69.10
2018-09-22T00:18:28.718Z,69.50
2018-09-22T00:20:59.391Z,69.60
2018-09-22T00:23:30.096Z,69.60
2018-09-22T00:26:00.812Z,69.50
2018-09-22T00:28:31.507Z,69.70
2018-09-22T00:31:02.199Z,69.70
2018-09-22T00:33:32.929Z,69.80
2018-09-22T00:36:03.636Z,69.90
2018-09-22T00:38:34.313Z,69.70
2018-09-22T00:41:05.373Z,69.90
2018-09-22T00:43:36.077Z,69.80
2018-09-22T00:46:07.106Z,69.80
2018-09-22T00:48:37.813Z,70.70
2018-09-22T00:51:08.939Z,69.80
2018-09-22T00:53:39.640Z,70.00
2018-09-22T00:56:10.681Z,70.00
2018-09-22T00:58:41.453Z,70.10
2018-09-22T01:01:12.144Z,70.30
2018-09-22T01:03:42.857Z,70.50
2018-09-22T01:06:13.525Z,70.40
2018-09-22T01:08:44.220Z,70.60
2018-09-22T01:11:14.917Z,70.60
2018-09-22T01:13:45.599Z,70.70
2018-09-22T01:16:16.273Z,70.70
2018-09-22T01:18:46.984Z,71.00
2018-09-22T01:21:17.651Z,71.20
2018-09-22T01:23:48.348Z,70.80
2018-09-22T01:26:19.403Z,70.90
2018-09-22T01:28:50.375Z,70.90
2018-09-22T01:31:21.057Z,71.20
2018-09-22T01:33:51.766Z,71.00
2018-09-22T01:36:22.452Z,71.30
2018-09-22T01:38:53.146Z,71.20
2018-09-22T01:41:23.856Z,71.70
2018-09-22T01:43:54.545Z,71.70
2018-09-22T01:46:25.228Z,71.70
2018-09-22T01:48:55.937Z,72.00
2018-09-22T01:51:26.660Z,72.00
2018-09-22T01:53:57.353Z,72.50
2018-09-22T01:56:28.181Z,72.40
2018-09-22T01:58:58.889Z,72.50
2018-09-22T02:01:29.593Z,72.70
2018-09-22T02:04:00.321Z,72.90
2018-09-22T02:06:31.007Z,73.40
2018-09-22T02:09:01.699Z,73.30
2018-09-22T02:11:32.367Z,73.50
2018-09-22T02:14:03.120Z,73.60
2018-09-22T02:16:33.809Z,74.70
2018-09-22T02:19:04.527Z,74.40
2018-09-22T02:21:35.337Z,74.30
2018-09-22T02:24:06.489Z,74.80
2018-09-22T02:26:37.197Z,74.70
2018-09-22T02:29:07.905Z,75.00
2018-09-22T02:31:38.616Z,75.00
2018-09-22T02:34:09.302Z,75.10
2018-09-22T02:36:40.019Z,75.10
2018-09-22T02:39:11.601Z,75.30
2018-09-22T02:41:42.300Z,75.50
2018-09-22T02:44:12.970Z,75.60
2018-09-22T02:46:43.678Z,75.60
2018-09-22T02:49:14.357Z,75.90
2018-09-22T02:51:45.093Z,75.70
2018-09-22T02:54:15.755Z,75.80
2018-09-22T02:56:46.443Z,76.00
2018-09-22T02:59:17.118Z,75.80
2018-09-22T03:01:47.817Z,76.00
2018-09-22T03:04:18.750Z,75.80
2018-09-22T03:06:49.495Z,76.30
2018-09-22T03:09:20.389Z,76.10
2018-09-22T03:11:51.097Z,76.40
2018-09-22T03:14:21.957Z,76.60
2018-09-22T03:16:53.007Z,76.70
2018-09-22T03:19:23.860Z,76.90
2018-09-22T03:21:54.572Z,77.00
2018-09-22T03:24:25.289Z,77.20
2018-09-22T03:26:55.981Z,76.80
2018-09-22T03:29:26.685Z,76.60
2018-09-22T03:31:57.388Z,76.50
2018-09-22T03:34:28.265Z,76.50
2018-09-22T03:36:58.969Z,76.70
2018-09-22T03:39:29.636Z,76.60
2018-09-22T03:42:00.342Z,76.90
2018-09-22T03:44:31.010Z,76.90
2018-09-22T03:47:01.699Z,76.90
2018-09-22T03:49:32.597Z,76.90
2018-09-22T03:52:03.504Z,76.90
2018-09-22T03:54:34.206Z,76.90
2018-09-22T03:57:05.273Z,77.30
2018-09-22T03:59:35.988Z,77.00
2018-09-22T04:02:06.681Z,77.20
2018-09-22T04:04:37.385Z,77.30
2018-09-22T04:07:08.250Z,77.20
2018-09-22T04:09:38.939Z,77.40
2018-09-22T04:12:09.621Z,77.30
2018-09-22T04:14:40.450Z,77.60
2018-09-22T04:17:11.176Z,77.30
2018-09-22T04:19:41.892Z,77.50
2018-09-22T04:22:12.576Z,77.30
2018-09-22T04:24:43.281Z,77.10
2018-09-22T04:27:13.940Z,77.40
2018-09-22T04:29:44.704Z,77.40
2018-09-22T04:32:15.365Z,77.60
2018-09-22T04:34:46.065Z,77.50
2018-09-22T04:37:16.736Z,77.60
2018-09-22T04:39:47.441Z,77.60
2018-09-22T04:42:18.140Z,77.70
2018-09-22T04:44:48.835Z,77.60
2018-09-22T04:47:19.572Z,77.40
2018-09-22T04:49:50.245Z,77.90
2018-09-22T04:52:20.956Z,77.30
2018-09-22T04:54:51.818Z,77.50
2018-09-22T04:57:22.528Z,77.90
2018-09-22T04:59:53.261Z,77.90
2018-09-22T05:02:23.945Z,77.70
2018-09-22T05:04:54.635Z,77.90
2018-09-22T05:07:25.826Z,77.70
2018-09-22T05:09:56.536Z,77.90
2018-09-22T05:12:29.404Z,78.00
2018-09-22T05:15:00.109Z,78.00
2018-09-22T05:17:30.817Z,77.80
2018-09-22T05:20:01.529Z,77.80
2018-09-22T05:22:32.195Z,77.60
2018-09-22T05:25:03.245Z,77.90
2018-09-22T05:27:33.989Z,78.00
2018-09-22T05:30:04.778Z,78.10
2018-09-22T05:32:35.453Z,78.40
2018-09-22T05:35:06.186Z,78.40
2018-09-22T05:37:36.897Z,78.10
2018-09-22T05:40:08.125Z,78.40
2018-09-22T05:42:38.823Z,78.30
2018-09-22T05:45:09.844Z,78.30
2018-09-22T05:47:40.546Z,78.40
2018-09-22T05:50:11.243Z,78.50
2018-09-22T05:52:41.951Z,78.80
2018-09-22T05:55:12.643Z,78.70
2018-09-22T05:57:43.357Z,79.10
2018-09-22T06:00:14.069Z,79.10
2018-09-22T06:02:44.761Z,79.40
2018-09-22T06:05:15.442Z,79.40
2018-09-22T06:07:46.146Z,79.30
2018-09-22T06:10:16.833Z,79.60
2018-09-22T06:12:47.525Z,79.60
2018-09-22T06:15:18.204Z,79.60
2018-09-22T06:17:48.916Z,79.70
2018-09-22T06:20:19.601Z,79.40
2018-09-22T06:22:50.317Z,79.30
2018-09-22T06:25:21.049Z,79.00
2018-09-22T06:27:51.755Z,79.10
2018-09-22T06:30:22.476Z,79.20
2018-09-22T06:32:53.147Z,79.20
2018-09-22T06:35:23.820Z,79.40
2018-09-22T06:37:54.504Z,79.20
2018-09-22T06:40:25.193Z,79.40
2018-09-22T06:42:55.878Z,79.20
2018-09-22T06:45:26.574Z,79.10
2018-09-22T06:47:57.268Z,78.80
2018-09-22T06:50:27.949Z,78.80
2018-09-22T06:52:58.632Z,78.70
2018-09-22T06:55:29.300Z,78.80
2018-09-22T06:58:00.005Z,78.50
2018-09-22T07:00:30.680Z,78.40
2018-09-22T07:03:01.387Z,78.40
2018-09-22T07:05:32.072Z,79.20
2018-09-22T07:08:02.782Z,78.00
2018-09-22T07:10:33.444Z,78.30
2018-09-22T07:13:04.141Z,77.40
2018-09-22T07:15:34.817Z,77.50
2018-09-22T07:18:06.552Z,77.50
2018-09-22T07:20:37.327Z,77.30
2018-09-22T07:23:15.842Z,76.80
2018-09-22T07:25:46.642Z,77.00
2018-09-22T07:28:17.368Z,76.90
2018-09-22T07:30:48.089Z,76.40
2018-09-22T07:33:18.925Z,77.00
2018-09-22T07:35:49.604Z,77.00
2018-09-22T07:38:20.457Z,76.70
2018-09-22T07:40:51.129Z,76.30
2018-09-22T07:43:21.862Z,75.70
2018-09-22T07:45:52.649Z,75.20
2018-09-22T07:48:23.512Z,74.50
2018-09-22T07:50:54.381Z,74.30
2018-09-22T07:53:25.149Z,74.80
2018-09-22T07:55:55.964Z,74.60
2018-09-22T07:58:26.657Z,74.10
2018-09-22T08:00:57.360Z,73.70
2018-09-22T08:03:28.340Z,72.70
2018-09-22T08:05:59.010Z,73.00
2018-09-22T08:08:29.701Z,71.30
2018-09-22T08:11:00.400Z,72.10
2018-09-22T08:13:31.078Z,70.80
2018-09-22T08:16:01.970Z,70.00
2018-09-22T08:18:32.624Z,70.30
2018-09-22T08:21:03.562Z,70.00
2018-09-22T08:23:34.236Z,69.60
2018-09-22T08:26:05.033Z,69.00
2018-09-22T08:28:35.716Z,67.80
2018-09-22T08:31:06.507Z,68.00
2018-09-22T08:33:37.212Z,67.90
2018-09-22T08:36:08.048Z,68.40
2018-09-22T08:38:38.821Z,67.90
2018-09-22T08:41:09.524Z,67.70
2018-09-22T08:43:40.224Z,67.80
2018-09-22T08:46:11.300Z,67.60
2018-09-22T08:48:42.457Z,68.40
2018-09-22T08:51:13.195Z,68.10
2018-09-22T08:53:44.106Z,68.10
2018-09-22T08:56:15.047Z,67.50
2018-09-22T08:58:45.720Z,67.20
2018-09-22T09:01:16.441Z,66.70
2018-09-22T09:03:47.129Z,67.20
2018-09-22T09:06:18.297Z,66.60
2018-09-22T09:08:48.952Z,66.50
2018-09-22T09:11:19.690Z,66.30
2018-09-22T09:13:51.640Z,66.80
2018-09-22T09:16:23.435Z,66.80
2018-09-22T09:18:54.377Z,66.60
2018-09-22T09:21:26.081Z,66.20
2018-09-22T09:23:56.757Z,65.80
2018-09-22T09:26:27.474Z,66.40
2018-09-22T09:28:58.164Z,65.60
2018-09-22T09:31:28.852Z,64.80
2018-09-22T09:33:59.535Z,64.60
2018-09-22T09:36:30.224Z,64.50
2018-09-22T09:39:02.098Z,64.20
2018-09-22T09:41:32.724Z,63.30
2018-09-22T09:44:03.432Z,62.90
2018-09-22T09:46:34.104Z,62.40
2018-09-22T09:49:05.176Z,62.50
2018-09-22T09:51:35.837Z,62.60
2018-09-22T09:54:06.830Z,62.10
2018-09-22T09:56:37.517Z,62.60
2018-09-22T09:59:08.231Z,63.00
2018-09-22T10:01:38.893Z,62.00
2018-09-22T10:04:09.588Z,61.80
2018-09-22T10:06:40.238Z,61.30
2018-09-22T10:09:11.112Z,60.90
2018-09-22T10:11:41.821Z,60.90
2018-09-22T10:14:12.686Z,59.40
2018-09-22T10:16:43.365Z,59.90
2018-09-22T10:19:14.055Z,59.70
2018-09-22T10:21:44.866Z,59.30
2018-09-22T10:24:16.622Z,59.40
2018-09-22T10:26:47.429Z,59.40
2018-09-22T10:29:18.093Z,60.60
2018-09-22T10:31:48.787Z,59.10
2018-09-22T10:34:19.469Z,58.30
2018-09-22T10:36:50.157Z,57.80
2018-09-22T10:39:20.808Z,57.30
2018-09-22T10:41:51.496Z,57.40
2018-09-22T10:44:22.146Z,57.30
2018-09-22T10:46:52.886Z,57.60
2018-09-22T10:49:23.552Z,56.80
2018-09-22T10:51:54.248Z,57.00
2018-09-22T10:54:24.927Z,56.70
2018-09-22T10:56:55.632Z,56.90
2018-09-22T10:59:26.292Z,56.60
2018-09-22T11:01:56.991Z,55.70
2018-09-22T11:04:27.689Z,56.10
2018-09-22T11:06:58.385Z,55.60
2018-09-22T11:09:29.090Z,56.10
2018-09-22T11:11:59.787Z,56.10
2018-09-22T11:14:30.446Z,56.10
2018-09-22T11:17:01.138Z,56.90
2018-09-22T11:19:31.828Z,55.50
2018-09-22T11:22:02.529Z,55.20
2018-09-22T11:24:33.207Z,56.10
2018-09-22T11:27:04.015Z,55.40
2018-09-22T11:29:34.845Z,55.20
2018-09-22T11:32:05.925Z,55.70
2018-09-22T11:34:36.613Z,55.40
2018-09-22T11:37:07.512Z,55.80
2018-09-22T11:39:38.162Z,56.50
2018-09-22T11:42:08.853Z,56.30
2018-09-22T11:44:39.561Z,56.40
2018-09-22T11:47:10.345Z,56.70
2018-09-22T11:49:41.028Z,56.90
2018-09-22T11:52:11.795Z,56.00
2018-09-22T11:54:42.527Z,56.30
2018-09-22T11:57:13.220Z,55.00
2018-09-22T11:59:43.924Z,57.40
2018-09-22T12:02:14.916Z,59.60
2018-09-22T12:04:45.610Z,59.50
2018-09-22T12:07:16.313Z,59.70
2018-09-22T12:09:47.003Z,60.60
2018-09-22T12:12:17.690Z,59.70
2018-09-22T12:14:48.364Z,61.10
2018-09-22T12:17:19.054Z,60.60
2018-09-22T12:19:49.753Z,62.80
2018-09-22T12:22:20.457Z,60.90
2018-09-22T12:24:51.114Z,60.40
2018-09-22T12:27:21.812Z,59.40
2018-09-22T12:29:52.480Z,57.10
2018-09-22T12:32:23.508Z,58.50
2018-09-22T12:34:54.220Z,60.70
2018-09-22T12:37:24.937Z,62.10
2018-09-22T12:39:55.608Z,61.40
2018-09-22T12:42:26.322Z,61.30
2018-09-22T12:44:57.001Z,62.40
2018-09-22T12:47:27.829Z,63.40
2018-09-22T12:49:58.526Z,63.70
2018-09-22T12:52:29.218Z,63.50
2018-09-22T12:54:59.876Z,61.80
2018-09-22T12:57:30.569Z,60.00
2018-09-22T13:00:01.285Z,60.00
2018-09-22T13:02:31.954Z,58.90
2018-09-22T13:05:02.682Z,59.20
2018-09-22T13:07:33.352Z,58.60
2018-09-22T13:10:04.860Z,58.20
2018-09-22T13:12:35.543Z,56.50
2018-09-22T13:15:06.485Z,56.20
2018-09-22T13:17:37.152Z,56.40
2018-09-22T13:20:07.919Z,56.50
2018-09-22T13:22:38.804Z,56.90
2018-09-22T13:25:09.520Z,58.40
2018-09-22T13:27:40.190Z,57.70
2018-09-22T13:30:11.240Z,55.00
2018-09-22T13:32:41.930Z,53.20
2018-09-22T13:35:12.653Z,50.90
2018-09-22T13:37:43.409Z,51.00
2018-09-22T13:40:14.086Z,49.90
2018-09-22T13:42:44.773Z,50.50
2018-09-22T13:45:15.452Z,49.90
2018-09-22T13:47:46.141Z,50.40
2018-09-22T13:50:16.793Z,53.20
2018-09-22T13:52:47.483Z,55.50
2018-09-22T13:55:18.356Z,56.00
2018-09-22T13:57:49.035Z,56.70
2018-09-22T14:00:19.701Z,55.20
2018-09-22T14:02:50.402Z,56.10
2018-09-22T14:05:21.062Z,56.50
2018-09-22T14:07:51.740Z,57.70
2018-09-22T14:10:22.423Z,58.60
2018-09-22T14:12:53.124Z,66.80
2018-09-22T14:15:23.780Z,70.10
2018-09-22T14:17:54.492Z,73.10
2018-09-22T14:20:25.161Z,77.10
2018-09-22T14:22:55.856Z,78.80
2018-09-22T14:25:26.552Z,81.90
2018-09-22T14:27:57.294Z,80.70
2018-09-22T14:30:27.990Z,83.20
2018-09-22T14:32:58.640Z,84.40
2018-09-22T14:35:29.348Z,85.40
2018-09-22T14:38:00.042Z,86.00
2018-09-22T14:40:30.736Z,85.70
2018-09-22T14:43:01.615Z,86.40
2018-09-22T14:45:32.273Z,88.20
2018-09-22T14:48:02.969Z,87.60
2018-09-22T14:50:33.656Z,86.90
2018-09-22T14:53:04.312Z,88.30
2018-09-22T14:55:35.011Z,88.60
2018-09-22T14:58:06.129Z,87.40
2018-09-22T15:00:36.989Z,87.60
2018-09-22T15:03:07.644Z,87.80
2018-09-22T15:05:38.329Z,88.40
2018-09-22T15:08:08.996Z,88.70
2018-09-22T15:10:39.709Z,87.40
2018-09-22T15:13:10.397Z,87.50
2018-09-22T15:15:41.108Z,89.50
2018-09-22T15:18:12.210Z,88.20
2018-09-22T15:20:42.925Z,88.50
2018-09-22T15:23:13.619Z,89.80
2018-09-22T15:25:44.312Z,90.30
2018-09-22T15:28:15.238Z,90.70
2018-09-22T15:30:50.483Z,88.80
2018-09-22T15:33:25.759Z,90.00
2018-09-22T15:36:01.098Z,90.70
2018-09-22T15:38:36.622Z,90.30
2018-09-22T15:41:11.780Z,90.30
2018-09-22T15:43:40.885Z,90.10
2018-09-22T15:46:09.872Z,90.10
2018-09-22T15:48:38.979Z,90.20
2018-09-22T15:51:08.094Z,90.90
2018-09-22T15:53:37.091Z,90.70
2018-09-22T15:56:06.690Z,90.30
2018-09-22T15:58:35.705Z,90.70
2018-09-22T16:01:04.764Z,90.60
2018-09-22T16:03:33.970Z,90.40
2018-09-22T16:06:03.540Z,90.60
2018-09-22T16:08:32.526Z,90.70
2018-09-22T16:11:01.745Z,90.60
2018-09-22T16:13:30.737Z,90.20
2018-09-22T16:15:59.757Z,90.50
2018-09-22T16:18:29.424Z,89.00
2018-09-22T16:20:58.464Z,90.80
2018-09-22T16:23:27.594Z,90.80
2018-09-22T16:25:57.607Z,91.00
2018-09-22T16:28:26.983Z,90.90
2018-09-22T16:30:56.429Z,90.60
2018-09-22T16:33:27.494Z,91.10
2018-09-22T16:35:57.764Z,91.50
2018-09-22T16:38:27.710Z,91.40
2018-09-22T16:40:57.874Z,91.40
2018-09-22T16:43:27.800Z,91.80
2018-09-22T16:45:56.910Z,92.20
2018-09-22T16:48:25.925Z,92.50
2018-09-22T16:50:54.943Z,92.30
2018-09-22T16:53:23.951Z,92.20
2018-09-22T16:55:52.965Z,92.30
2018-09-22T16:58:21.979Z,92.40
2018-09-22T17:00:51.183Z,92.60
2018-09-22T17:03:20.170Z,93.20
2018-09-22T17:05:49.239Z,93.20
2018-09-22T17:08:18.237Z,93.30
2018-09-22T17:10:47.280Z,93.50
2018-09-22T17:13:16.269Z,93.60
2018-09-22T17:15:45.287Z,93.60
2018-09-22T17:18:14.332Z,93.20
2018-09-22T17:20:43.312Z,93.50
2018-09-22T17:23:12.333Z,93.70
2018-09-22T17:25:41.364Z,93.80
2018-09-22T17:28:10.365Z,93.80
2018-09-22T17:30:39.345Z,94.10
2018-09-22T17:33:08.372Z,94.30
2018-09-22T17:35:37.358Z,94.80
2018-09-22T17:38:06.392Z,94.80
2018-09-22T17:40:35.400Z,95.00
2018-09-22T17:43:04.635Z,95.50
2018-09-22T17:45:33.644Z,95.50
2018-09-22T17:48:02.875Z,95.60
2018-09-22T17:50:31.851Z,95.60
2018-09-22T17:53:07.508Z,95.80
2018-09-22T17:55:36.708Z,95.80
2018-09-22T17:58:05.960Z,95.90
2018-09-22T18:00:34.939Z,96.00
2018-09-22T18:03:03.955Z,96.10
2018-09-22T18:05:32.945Z,96.50
2018-09-22T18:08:01.968Z,96.80
2018-09-22T18:10:30.965Z,95.90
2018-09-22T18:12:59.991Z,95.80
2018-09-22T18:15:29.172Z,95.90
2018-09-22T18:17:58.220Z,95.90
2018-09-22T18:20:27.416Z,96.20
2018-09-22T18:22:56.441Z,96.20
2018-09-22T18:25:25.520Z,96.40
2018-09-22T18:27:54.684Z,96.30
2018-09-22T18:30:23.689Z,96.30
2018-09-22T18:32:53.043Z,96.40
2018-09-22T18:35:22.062Z,96.60
2018-09-22T18:37:51.112Z,96.60
2018-09-22T18:40:20.142Z,97.00
2018-09-22T18:42:49.138Z,97.30
2018-09-22T18:45:18.177Z,97.50
2018-09-22T18:47:47.164Z,97.60
2018-09-22T18:50:16.176Z,97.60
2018-09-22T18:52:45.159Z,97.30
2018-09-22T18:55:14.196Z,97.30
2018-09-22T18:57:43.226Z,97.50
2018-09-22T19:00:12.729Z,97.60
2018-09-22T19:02:41.740Z,97.70
2018-09-22T19:05:10.724Z,97.90
2018-09-22T19:07:39.772Z,97.90
2018-09-22T19:10:08.788Z,97.90
2018-09-22T19:12:37.856Z,98.00
2018-09-22T19:15:10.776Z,98.10
2018-09-22T19:17:47.855Z,98.00
2018-09-22T19:20:26.141Z,97.90
2018-09-22T19:22:58.713Z,98.00
2018-09-22T19:25:30.164Z,98.20
2018-09-22T19:28:05.283Z,98.10
2018-09-22T19:30:39.321Z,98.20
2018-09-22T19:34:11.188Z,98.40
2018-09-22T19:36:43.292Z,98.40
2018-09-22T19:39:26.137Z,98.40
2018-09-22T19:41:58.687Z,98.30
2018-09-22T19:44:35.912Z,98.50
2018-09-22T19:47:09.377Z,98.70
2018-09-22T19:49:42.187Z,98.60
2018-09-22T19:52:14.310Z,98.50
2018-09-22T19:54:43.662Z,98.60
2018-09-22T19:57:12.648Z,98.70
2018-09-22T19:59:41.682Z,98.70
2018-09-22T20:02:10.696Z,98.50
2018-09-22T20:04:39.713Z,98.90
2018-09-22T20:07:08.720Z,98.60
2018-09-22T20:09:37.745Z,98.70
2018-09-22T20:12:06.783Z,99.00
2018-09-22T20:14:35.964Z,99.00
2018-09-22T20:17:05.338Z,99.00
2018-09-22T20:19:35.382Z,99.00
2018-09-22T20:22:06.593Z,99.20
2018-09-22T20:24:35.593Z,99.30
2018-09-22T20:27:04.645Z,99.60
2018-09-22T20:29:33.683Z,99.40
2018-09-22T20:32:02.757Z,99.50
2018-09-22T20:34:38.081Z,99.40
2018-09-22T20:37:08.296Z,99.30
2018-09-22T20:39:37.933Z,99.30
2018-09-22T20:42:08.953Z,99.40
2018-09-22T20:44:39.689Z,99.40
2018-09-22T20:47:10.337Z,99.50
2018-09-22T20:49:41.061Z,99.40
2018-09-22T20:52:12.104Z,99.80
2018-09-22T20:54:42.836Z,99.40
2018-09-22T20:57:13.540Z,99.70
2018-09-22T20:59:44.260Z,99.40
2018-09-22T21:02:14.969Z,99.40
2018-09-22T21:04:45.916Z,99.40
2018-09-22T21:07:16.609Z,99.40
2018-09-22T21:09:47.316Z,99.40
2018-09-22T21:12:17.996Z,99.50
2018-09-22T21:14:48.739Z,99.50
2018-09-22T21:17:19.400Z,99.50
2018-09-22T21:19:50.141Z,99.70
2018-09-22T21:22:21.180Z,99.90
2018-09-22T21:24:52.137Z,99.90
2018-09-22T21:27:22.860Z,99.90
2018-09-22T21:29:53.598Z,99.90
2018-09-22T21:32:24.324Z,99.90
2018-09-22T21:34:55.021Z,99.90
2018-09-22T21:37:25.747Z,99.90
2018-09-22T21:39:56.441Z,99.90
2018-09-22T21:42:27.157Z,99.70
2018-09-22T21:44:57.853Z,99.90
2018-09-22T21:47:28.581Z,99.90
2018-09-22T21:49:59.260Z,99.90
2018-09-22T21:52:29.966Z,99.90
2018-09-22T21:55:00.704Z,99.80
2018-09-22T21:57:31.392Z,99.90
2018-09-22T22:00:02.133Z,99.80
2018-09-22T22:02:32.800Z,99.90
2018-09-22T22:05:03.543Z,99.90
2018-09-22T22:07:34.233Z,99.90
2018-09-22T22:10:04.989Z,99.90
2018-09-22T22:12:35.684Z,99.90
2018-09-22T22:15:06.384Z,99.90
2018-09-22T22:17:37.109Z,99.90
2018-09-22T22:20:07.885Z,99.90
2018-09-22T22:22:38.648Z,99.90
2018-09-22T22:25:10.245Z,99.90
2018-09-22T22:27:40.989Z,99.90
2018-09-22T22:30:12.060Z,99.90
2018-09-22T22:32:42.780Z,99.90
2018-09-22T22:35:13.553Z,99.90
2018-09-22T22:37:44.377Z,99.90
2018-09-22T22:40:15.063Z,99.90
2018-09-22T22:42:45.778Z,99.90
2018-09-22T22:45:16.526Z,99.90
2018-09-22T22:47:47.212Z,99.90
2018-09-22T22:50:17.936Z,99.90
2018-09-22T22:52:48.641Z,99.90
2018-09-22T22:55:19.345Z,99.90
2018-09-22T22:57:50.162Z,99.90
2018-09-22T23:00:20.869Z,99.90
2018-09-22T23:02:51.543Z,99.90
2018-09-22T23:05:22.249Z,99.90
2018-09-22T23:07:52.939Z,99.90
2018-09-22T23:10:23.612Z,99.90
2018-09-22T23:12:54.309Z,99.90
2018-09-22T23:15:24.976Z,99.90
2018-09-22T23:17:55.676Z,99.90
2018-09-22T23:20:26.359Z,99.90
2018-09-22T23:22:57.074Z,99.90
2018-09-22T23:25:27.735Z,99.90
2018-09-22T23:27:58.518Z,99.90
2018-09-22T23:30:29.430Z,99.90
2018-09-22T23:33:00.184Z,99.90
2018-09-22T23:35:31.058Z,99.90
2018-09-22T23:38:02.327Z,99.90
2018-09-22T23:40:33.192Z,99.90
2018-09-22T23:43:03.981Z,99.90
2018-09-22T23:45:34.657Z,99.90
2018-09-22T23:48:05.411Z,99.90
2018-09-22T23:50:36.127Z,99.90
2018-09-22T23:53:06.785Z,99.90
2018-09-22T23:55:37.540Z,99.90
2018-09-22T23:58:08.219Z,99.90
